sensor_id;sensor_type;location;lat;lon;timestamp;P1;durP1;ratioP1;P2;durP2;ratioP2
7933;SDS011;4012;48.896;9.192;2023-07-30T00:00:55;1.83;;;1.60;;
7933;SDS011;4012;48.896;9.192;2023-07-30T00:03:21;2.13;;;1.50;;
7933;SDS011;4012;48.896;9.192;2023-07-30T00:05:53;1.37;;;1.27;;
7933;SDS011;4012;48.896;9.192;2023-07-30T00:08:20;1.37;;;1.10;;
7933;SDS011;4012;48.896;9.192;2023-07-30T00:10:46;1.50;;;1.33;;
7933;SDS011;4012;48.896;9.192;2023-07-30T00:13:11;1.37;;;1.17;;
7933;SDS011;4012;48.896;9.192;2023-07-30T00:15:37;1.53;;;1.10;;
7933;SDS011;4012;48.896;9.192;2023-07-30T00:18:03;2.77;;;1.13;;
7933;SDS011;4012;48.896;9.192;2023-07-30T00:20:28;2.20;;;1.00;;
7933;SDS011;4012;48.896;9.192;2023-07-30T00:22:54;0.90;;;0.90;;
7933;SDS011;4012;48.896;9.192;2023-07-30T00:25:19;4.77;;;1.40;;
7933;SDS011;4012;48.896;9.192;2023-07-30T00:27:45;1.60;;;1.10;;
7933;SDS011;4012;48.896;9.192;2023-07-30T00:30:11;4.97;;;1.13;;
7933;SDS011;4012;48.896;9.192;2023-07-30T00:32:36;1.43;;;0.90;;
7933;SDS011;4012;48.896;9.192;2023-07-30T00:35:05;1.30;;;1.17;;
7933;SDS011;4012;48.896;9.192;2023-07-30T00:37:31;2.40;;;1.20;;
7933;SDS011;4012;48.896;9.192;2023-07-30T00:39:57;1.70;;;1.27;;
7933;SDS011;4012;48.896;9.192;2023-07-30T00:42:22;3.30;;;1.07;;
7933;SDS011;4012;48.896;9.192;2023-07-30T00:44:48;3.23;;;1.00;;
7933;SDS011;4012;48.896;9.192;2023-07-30T00:47:14;2.07;;;1.00;;
7933;SDS011;4012;48.896;9.192;2023-07-30T00:49:39;1.30;;;1.03;;
7933;SDS011;4012;48.896;9.192;2023-07-30T00:52:05;1.13;;;1.03;;
7933;SDS011;4012;48.896;9.192;2023-07-30T00:54:32;2.23;;;1.30;;
7933;SDS011;4012;48.896;9.192;2023-07-30T00:56:58;1.53;;;0.97;;
7933;SDS011;4012;48.896;9.192;2023-07-30T00:59:25;2.50;;;1.33;;
7933;SDS011;4012;48.896;9.192;2023-07-30T01:01:51;2.93;;;1.07;;
7933;SDS011;4012;48.896;9.192;2023-07-30T01:04:18;1.30;;;1.20;;
7933;SDS011;4012;48.896;9.192;2023-07-30T01:06:43;1.20;;;1.10;;
7933;SDS011;4012;48.896;9.192;2023-07-30T01:09:15;1.40;;;1.17;;
7933;SDS011;4012;48.896;9.192;2023-07-30T01:11:43;2.60;;;1.03;;
7933;SDS011;4012;48.896;9.192;2023-07-30T01:14:09;1.20;;;1.10;;
7933;SDS011;4012;48.896;9.192;2023-07-30T01:16:39;1.50;;;1.40;;
7933;SDS011;4012;48.896;9.192;2023-07-30T01:19:05;1.20;;;1.10;;
7933;SDS011;4012;48.896;9.192;2023-07-30T01:21:35;1.23;;;1.13;;
7933;SDS011;4012;48.896;9.192;2023-07-30T01:24:03;1.50;;;1.40;;
7933;SDS011;4012;48.896;9.192;2023-07-30T01:26:40;1.67;;;1.17;;
7933;SDS011;4012;48.896;9.192;2023-07-30T01:29:15;2.57;;;1.30;;
7933;SDS011;4012;48.896;9.192;2023-07-30T01:31:46;3.77;;;1.23;;
7933;SDS011;4012;48.896;9.192;2023-07-30T01:34:24;5.30;;;1.50;;
7933;SDS011;4012;48.896;9.192;2023-07-30T01:36:52;2.53;;;1.30;;
7933;SDS011;4012;48.896;9.192;2023-07-30T01:39:19;1.93;;;1.30;;
7933;SDS011;4012;48.896;9.192;2023-07-30T01:41:45;4.57;;;1.30;;
7933;SDS011;4012;48.896;9.192;2023-07-30T01:44:10;1.90;;;1.30;;
7933;SDS011;4012;48.896;9.192;2023-07-30T01:46:36;1.77;;;1.37;;
7933;SDS011;4012;48.896;9.192;2023-07-30T01:49:02;1.97;;;1.30;;
7933;SDS011;4012;48.896;9.192;2023-07-30T01:51:27;1.37;;;1.27;;
7933;SDS011;4012;48.896;9.192;2023-07-30T01:53:53;1.50;;;1.40;;
7933;SDS011;4012;48.896;9.192;2023-07-30T01:56:18;3.60;;;1.80;;
7933;SDS011;4012;48.896;9.192;2023-07-30T01:58:44;2.20;;;1.60;;
7933;SDS011;4012;48.896;9.192;2023-07-30T02:01:09;1.70;;;1.60;;
7933;SDS011;4012;48.896;9.192;2023-07-30T02:03:35;1.77;;;1.57;;
7933;SDS011;4012;48.896;9.192;2023-07-30T02:06:01;2.50;;;1.40;;
7933;SDS011;4012;48.896;9.192;2023-07-30T02:08:26;2.07;;;1.80;;
7933;SDS011;4012;48.896;9.192;2023-07-30T02:10:58;2.03;;;1.60;;
7933;SDS011;4012;48.896;9.192;2023-07-30T02:13:24;2.53;;;1.77;;
7933;SDS011;4012;48.896;9.192;2023-07-30T02:15:51;2.50;;;1.70;;
7933;SDS011;4012;48.896;9.192;2023-07-30T02:18:16;3.30;;;1.70;;
7933;SDS011;4012;48.896;9.192;2023-07-30T02:20:42;1.77;;;1.67;;
7933;SDS011;4012;48.896;9.192;2023-07-30T02:23:08;1.97;;;1.60;;
7933;SDS011;4012;48.896;9.192;2023-07-30T02:25:33;2.87;;;1.70;;
7933;SDS011;4012;48.896;9.192;2023-07-30T02:27:59;2.90;;;1.80;;
7933;SDS011;4012;48.896;9.192;2023-07-30T02:30:26;1.57;;;1.47;;
7933;SDS011;4012;48.896;9.192;2023-07-30T02:32:52;1.93;;;1.50;;
7933;SDS011;4012;48.896;9.192;2023-07-30T02:35:18;2.73;;;1.73;;
7933;SDS011;4012;48.896;9.192;2023-07-30T02:37:43;3.27;;;1.50;;
7933;SDS011;4012;48.896;9.192;2023-07-30T02:40:09;3.47;;;1.97;;
7933;SDS011;4012;48.896;9.192;2023-07-30T02:42:35;1.70;;;1.60;;
7933;SDS011;4012;48.896;9.192;2023-07-30T02:45:00;2.90;;;1.70;;
7933;SDS011;4012;48.896;9.192;2023-07-30T02:47:26;2.13;;;1.70;;
7933;SDS011;4012;48.896;9.192;2023-07-30T02:49:53;3.53;;;2.13;;
7933;SDS011;4012;48.896;9.192;2023-07-30T02:52:19;1.97;;;1.77;;
7933;SDS011;4012;48.896;9.192;2023-07-30T02:54:44;2.40;;;1.70;;
7933;SDS011;4012;48.896;9.192;2023-07-30T02:57:10;1.90;;;1.80;;
7933;SDS011;4012;48.896;9.192;2023-07-30T02:59:37;3.70;;;1.70;;
7933;SDS011;4012;48.896;9.192;2023-07-30T03:02:03;3.90;;;2.03;;
7933;SDS011;4012;48.896;9.192;2023-07-30T03:04:32;2.80;;;1.90;;
7933;SDS011;4012;48.896;9.192;2023-07-30T03:06:58;2.17;;;1.73;;
7933;SDS011;4012;48.896;9.192;2023-07-30T03:09:24;2.07;;;1.87;;
7933;SDS011;4012;48.896;9.192;2023-07-30T03:11:50;2.43;;;1.67;;
7933;SDS011;4012;48.896;9.192;2023-07-30T03:14:16;2.97;;;2.10;;
7933;SDS011;4012;48.896;9.192;2023-07-30T03:16:45;1.93;;;1.60;;
7933;SDS011;4012;48.896;9.192;2023-07-30T03:19:11;1.97;;;1.70;;
7933;SDS011;4012;48.896;9.192;2023-07-30T03:21:37;2.23;;;1.63;;
7933;SDS011;4012;48.896;9.192;2023-07-30T03:24:02;1.87;;;1.70;;
7933;SDS011;4012;48.896;9.192;2023-07-30T03:26:28;2.00;;;1.63;;
7933;SDS011;4012;48.896;9.192;2023-07-30T03:28:53;2.73;;;2.10;;
7933;SDS011;4012;48.896;9.192;2023-07-30T03:31:19;2.37;;;2.00;;
7933;SDS011;4012;48.896;9.192;2023-07-30T03:33:44;1.90;;;1.80;;
7933;SDS011;4012;48.896;9.192;2023-07-30T03:36:11;2.47;;;1.80;;
7933;SDS011;4012;48.896;9.192;2023-07-30T03:38:38;1.83;;;1.70;;
7933;SDS011;4012;48.896;9.192;2023-07-30T03:41:04;2.37;;;1.73;;
7933;SDS011;4012;48.896;9.192;2023-07-30T03:43:31;2.13;;;1.93;;
7933;SDS011;4012;48.896;9.192;2023-07-30T03:45:57;2.10;;;1.90;;
7933;SDS011;4012;48.896;9.192;2023-07-30T03:48:23;2.37;;;1.70;;
7933;SDS011;4012;48.896;9.192;2023-07-30T03:50:48;2.50;;;2.20;;
7933;SDS011;4012;48.896;9.192;2023-07-30T03:53:14;2.03;;;1.60;;
7933;SDS011;4012;48.896;9.192;2023-07-30T03:55:40;5.10;;;2.00;;
7933;SDS011;4012;48.896;9.192;2023-07-30T03:58:05;4.20;;;2.10;;
7933;SDS011;4012;48.896;9.192;2023-07-30T04:00:31;3.17;;;1.83;;
7933;SDS011;4012;48.896;9.192;2023-07-30T04:02:57;2.07;;;1.87;;
7933;SDS011;4012;48.896;9.192;2023-07-30T04:05:23;2.77;;;1.87;;
7933;SDS011;4012;48.896;9.192;2023-07-30T04:07:48;5.13;;;1.70;;
7933;SDS011;4012;48.896;9.192;2023-07-30T04:10:14;3.63;;;2.10;;
7933;SDS011;4012;48.896;9.192;2023-07-30T04:12:40;2.87;;;2.00;;
7933;SDS011;4012;48.896;9.192;2023-07-30T04:15:05;3.63;;;2.10;;
7933;SDS011;4012;48.896;9.192;2023-07-30T04:17:31;3.93;;;2.10;;
7933;SDS011;4012;48.896;9.192;2023-07-30T04:19:57;2.83;;;2.57;;
7933;SDS011;4012;48.896;9.192;2023-07-30T04:22:23;2.50;;;2.03;;
7933;SDS011;4012;48.896;9.192;2023-07-30T04:24:48;1.93;;;1.70;;
7933;SDS011;4012;48.896;9.192;2023-07-30T04:27:14;2.80;;;2.07;;
7933;SDS011;4012;48.896;9.192;2023-07-30T04:29:39;4.50;;;2.17;;
7933;SDS011;4012;48.896;9.192;2023-07-30T04:32:05;3.77;;;2.10;;
7933;SDS011;4012;48.896;9.192;2023-07-30T04:34:31;3.03;;;2.37;;
7933;SDS011;4012;48.896;9.192;2023-07-30T04:36:57;3.80;;;2.50;;
7933;SDS011;4012;48.896;9.192;2023-07-30T04:39:22;6.43;;;2.30;;
7933;SDS011;4012;48.896;9.192;2023-07-30T04:41:48;2.37;;;1.97;;
7933;SDS011;4012;48.896;9.192;2023-07-30T04:44:13;3.10;;;2.27;;
7933;SDS011;4012;48.896;9.192;2023-07-30T04:46:39;3.00;;;2.23;;
7933;SDS011;4012;48.896;9.192;2023-07-30T04:49:05;2.77;;;2.30;;
7933;SDS011;4012;48.896;9.192;2023-07-30T04:51:30;2.03;;;1.93;;
7933;SDS011;4012;48.896;9.192;2023-07-30T04:53:56;3.33;;;2.20;;
7933;SDS011;4012;48.896;9.192;2023-07-30T04:56:21;2.77;;;2.17;;
7933;SDS011;4012;48.896;9.192;2023-07-30T04:58:47;3.23;;;2.30;;
7933;SDS011;4012;48.896;9.192;2023-07-30T05:01:12;3.53;;;2.70;;
7933;SDS011;4012;48.896;9.192;2023-07-30T05:03:38;3.70;;;2.03;;
7933;SDS011;4012;48.896;9.192;2023-07-30T05:06:04;3.60;;;2.10;;
7933;SDS011;4012;48.896;9.192;2023-07-30T05:08:29;3.07;;;2.33;;
7933;SDS011;4012;48.896;9.192;2023-07-30T05:10:55;2.87;;;2.20;;
7933;SDS011;4012;48.896;9.192;2023-07-30T05:13:20;3.50;;;2.10;;
7933;SDS011;4012;48.896;9.192;2023-07-30T05:15:46;3.03;;;2.20;;
7933;SDS011;4012;48.896;9.192;2023-07-30T05:18:12;2.53;;;1.87;;
7933;SDS011;4012;48.896;9.192;2023-07-30T05:20:38;4.50;;;2.10;;
7933;SDS011;4012;48.896;9.192;2023-07-30T05:23:04;3.30;;;1.70;;
7933;SDS011;4012;48.896;9.192;2023-07-30T05:25:31;1.70;;;1.60;;
7933;SDS011;4012;48.896;9.192;2023-07-30T05:27:57;2.13;;;1.63;;
7933;SDS011;4012;48.896;9.192;2023-07-30T05:30:23;1.67;;;1.57;;
7933;SDS011;4012;48.896;9.192;2023-07-30T05:32:49;1.70;;;1.60;;
7933;SDS011;4012;48.896;9.192;2023-07-30T05:35:14;4.03;;;1.70;;
7933;SDS011;4012;48.896;9.192;2023-07-30T05:37:40;3.03;;;1.80;;
7933;SDS011;4012;48.896;9.192;2023-07-30T05:40:06;1.90;;;1.50;;
7933;SDS011;4012;48.896;9.192;2023-07-30T05:42:32;1.57;;;1.43;;
7933;SDS011;4012;48.896;9.192;2023-07-30T05:44:58;1.40;;;1.30;;
7933;SDS011;4012;48.896;9.192;2023-07-30T05:47:23;2.37;;;1.50;;
7933;SDS011;4012;48.896;9.192;2023-07-30T05:49:49;1.27;;;1.13;;
7933;SDS011;4012;48.896;9.192;2023-07-30T05:52:14;1.60;;;1.50;;
7933;SDS011;4012;48.896;9.192;2023-07-30T05:54:40;1.70;;;1.60;;
7933;SDS011;4012;48.896;9.192;2023-07-30T05:57:05;2.40;;;1.60;;
7933;SDS011;4012;48.896;9.192;2023-07-30T05:59:31;1.50;;;1.40;;
7933;SDS011;4012;48.896;9.192;2023-07-30T06:01:56;2.03;;;1.40;;
7933;SDS011;4012;48.896;9.192;2023-07-30T06:04:29;1.40;;;1.30;;
7933;SDS011;4012;48.896;9.192;2023-07-30T06:06:55;1.90;;;1.43;;
7933;SDS011;4012;48.896;9.192;2023-07-30T06:09:20;1.60;;;1.50;;
7933;SDS011;4012;48.896;9.192;2023-07-30T06:11:46;1.63;;;1.40;;
7933;SDS011;4012;48.896;9.192;2023-07-30T06:14:11;2.50;;;1.37;;
7933;SDS011;4012;48.896;9.192;2023-07-30T06:16:37;1.90;;;1.40;;
7933;SDS011;4012;48.896;9.192;2023-07-30T06:19:03;1.40;;;1.27;;
7933;SDS011;4012;48.896;9.192;2023-07-30T06:21:28;1.97;;;1.37;;
7933;SDS011;4012;48.896;9.192;2023-07-30T06:23:54;1.30;;;1.20;;
7933;SDS011;4012;48.896;9.192;2023-07-30T06:26:19;2.47;;;1.20;;
7933;SDS011;4012;48.896;9.192;2023-07-30T06:28:45;2.63;;;1.27;;
7933;SDS011;4012;48.896;9.192;2023-07-30T06:31:10;2.43;;;1.20;;
7933;SDS011;4012;48.896;9.192;2023-07-30T06:33:36;1.67;;;1.30;;
7933;SDS011;4012;48.896;9.192;2023-07-30T06:36:03;1.20;;;1.10;;
7933;SDS011;4012;48.896;9.192;2023-07-30T06:38:29;1.67;;;1.20;;
7933;SDS011;4012;48.896;9.192;2023-07-30T06:40:54;1.63;;;1.40;;
7933;SDS011;4012;48.896;9.192;2023-07-30T06:43:22;1.50;;;1.40;;
7933;SDS011;4012;48.896;9.192;2023-07-30T06:45:48;1.00;;;1.00;;
7933;SDS011;4012;48.896;9.192;2023-07-30T06:48:14;1.20;;;1.10;;
7933;SDS011;4012;48.896;9.192;2023-07-30T06:50:42;1.00;;;1.00;;
7933;SDS011;4012;48.896;9.192;2023-07-30T06:53:08;1.93;;;1.13;;
7933;SDS011;4012;48.896;9.192;2023-07-30T06:55:33;1.20;;;1.10;;
7933;SDS011;4012;48.896;9.192;2023-07-30T06:57:59;1.37;;;1.27;;
7933;SDS011;4012;48.896;9.192;2023-07-30T07:00:24;1.40;;;1.30;;
7933;SDS011;4012;48.896;9.192;2023-07-30T07:02:50;1.20;;;1.10;;
7933;SDS011;4012;48.896;9.192;2023-07-30T07:05:16;1.00;;;1.00;;
7933;SDS011;4012;48.896;9.192;2023-07-30T07:07:42;1.90;;;1.30;;
7933;SDS011;4012;48.896;9.192;2023-07-30T07:10:08;1.30;;;1.20;;
7933;SDS011;4012;48.896;9.192;2023-07-30T07:12:35;4.77;;;1.40;;
7933;SDS011;4012;48.896;9.192;2023-07-30T07:15:02;3.63;;;1.30;;
7933;SDS011;4012;48.896;9.192;2023-07-30T07:17:28;5.13;;;1.30;;
7933;SDS011;4012;48.896;9.192;2023-07-30T07:19:54;1.50;;;1.40;;
7933;SDS011;4012;48.896;9.192;2023-07-30T07:22:19;1.97;;;1.50;;
7933;SDS011;4012;48.896;9.192;2023-07-30T07:24:45;1.87;;;1.33;;
7933;SDS011;4012;48.896;9.192;2023-07-30T07:27:11;1.57;;;1.40;;
7933;SDS011;4012;48.896;9.192;2023-07-30T07:29:36;2.27;;;1.60;;
7933;SDS011;4012;48.896;9.192;2023-07-30T07:32:02;1.90;;;1.50;;
7933;SDS011;4012;48.896;9.192;2023-07-30T07:34:28;2.23;;;1.60;;
7933;SDS011;4012;48.896;9.192;2023-07-30T07:36:54;1.70;;;1.40;;
7933;SDS011;4012;48.896;9.192;2023-07-30T07:39:19;3.97;;;1.90;;
7933;SDS011;4012;48.896;9.192;2023-07-30T07:41:45;3.43;;;1.90;;
7933;SDS011;4012;48.896;9.192;2023-07-30T07:44:11;2.83;;;1.80;;
7933;SDS011;4012;48.896;9.192;2023-07-30T07:46:36;3.10;;;1.70;;
7933;SDS011;4012;48.896;9.192;2023-07-30T07:49:02;1.90;;;1.70;;
7933;SDS011;4012;48.896;9.192;2023-07-30T07:51:28;3.53;;;2.00;;
7933;SDS011;4012;48.896;9.192;2023-07-30T07:53:53;2.47;;;1.37;;
7933;SDS011;4012;48.896;9.192;2023-07-30T07:56:19;1.73;;;1.60;;
7933;SDS011;4012;48.896;9.192;2023-07-30T07:58:44;2.53;;;1.77;;
7933;SDS011;4012;48.896;9.192;2023-07-30T08:01:10;1.80;;;1.40;;
7933;SDS011;4012;48.896;9.192;2023-07-30T08:03:35;2.13;;;1.50;;
7933;SDS011;4012;48.896;9.192;2023-07-30T08:06:01;2.23;;;1.97;;
7933;SDS011;4012;48.896;9.192;2023-07-30T08:08:27;1.63;;;1.53;;
7933;SDS011;4012;48.896;9.192;2023-07-30T08:10:53;1.57;;;1.47;;
7933;SDS011;4012;48.896;9.192;2023-07-30T08:13:19;1.80;;;1.50;;
7933;SDS011;4012;48.896;9.192;2023-07-30T08:15:45;2.97;;;1.60;;
7933;SDS011;4012;48.896;9.192;2023-07-30T08:18:10;1.53;;;1.27;;
7933;SDS011;4012;48.896;9.192;2023-07-30T08:20:36;3.80;;;1.50;;
7933;SDS011;4012;48.896;9.192;2023-07-30T08:23:02;2.30;;;1.60;;
7933;SDS011;4012;48.896;9.192;2023-07-30T08:25:27;2.77;;;1.67;;
7933;SDS011;4012;48.896;9.192;2023-07-30T08:27:53;1.43;;;1.33;;
7933;SDS011;4012;48.896;9.192;2023-07-30T08:30:18;1.90;;;1.80;;
7933;SDS011;4012;48.896;9.192;2023-07-30T08:32:44;1.90;;;1.70;;
7933;SDS011;4012;48.896;9.192;2023-07-30T08:35:10;1.53;;;1.40;;
7933;SDS011;4012;48.896;9.192;2023-07-30T08:37:36;2.33;;;1.40;;
7933;SDS011;4012;48.896;9.192;2023-07-30T08:40:02;1.77;;;1.40;;
7933;SDS011;4012;48.896;9.192;2023-07-30T08:42:28;1.87;;;1.50;;
7933;SDS011;4012;48.896;9.192;2023-07-30T08:44:54;2.03;;;1.63;;
7933;SDS011;4012;48.896;9.192;2023-07-30T08:47:20;1.50;;;1.40;;
7933;SDS011;4012;48.896;9.192;2023-07-30T08:49:45;1.23;;;1.13;;
7933;SDS011;4012;48.896;9.192;2023-07-30T08:52:11;5.67;;;1.70;;
7933;SDS011;4012;48.896;9.192;2023-07-30T08:54:38;3.60;;;1.40;;
7933;SDS011;4012;48.896;9.192;2023-07-30T08:57:04;2.33;;;1.73;;
7933;SDS011;4012;48.896;9.192;2023-07-30T08:59:36;1.80;;;1.40;;
7933;SDS011;4012;48.896;9.192;2023-07-30T09:02:05;1.67;;;1.40;;
7933;SDS011;4012;48.896;9.192;2023-07-30T09:04:38;1.60;;;1.50;;
7933;SDS011;4012;48.896;9.192;2023-07-30T09:07:08;2.13;;;1.40;;
7933;SDS011;4012;48.896;9.192;2023-07-30T09:09:34;2.77;;;1.40;;
7933;SDS011;4012;48.896;9.192;2023-07-30T09:12:01;2.93;;;1.50;;
7933;SDS011;4012;48.896;9.192;2023-07-30T09:14:27;2.63;;;1.50;;
7933;SDS011;4012;48.896;9.192;2023-07-30T09:16:56;2.33;;;1.90;;
7933;SDS011;4012;48.896;9.192;2023-07-30T09:19:23;1.50;;;1.40;;
7933;SDS011;4012;48.896;9.192;2023-07-30T09:21:48;1.73;;;1.63;;
7933;SDS011;4012;48.896;9.192;2023-07-30T09:24:20;1.80;;;1.70;;
7933;SDS011;4012;48.896;9.192;2023-07-30T09:26:47;3.10;;;2.13;;
7933;SDS011;4012;48.896;9.192;2023-07-30T09:29:12;3.47;;;1.80;;
7933;SDS011;4012;48.896;9.192;2023-07-30T09:31:51;2.60;;;1.60;;
7933;SDS011;4012;48.896;9.192;2023-07-30T09:34:22;1.60;;;1.50;;
7933;SDS011;4012;48.896;9.192;2023-07-30T09:36:54;4.27;;;1.73;;
7933;SDS011;4012;48.896;9.192;2023-07-30T09:39:21;2.70;;;1.60;;
7933;SDS011;4012;48.896;9.192;2023-07-30T09:41:51;2.03;;;1.60;;
7933;SDS011;4012;48.896;9.192;2023-07-30T09:44:18;2.27;;;2.00;;
7933;SDS011;4012;48.896;9.192;2023-07-30T09:46:46;1.83;;;1.73;;
7933;SDS011;4012;48.896;9.192;2023-07-30T09:49:14;3.10;;;2.30;;
7933;SDS011;4012;48.896;9.192;2023-07-30T09:51:40;1.60;;;1.50;;
7933;SDS011;4012;48.896;9.192;2023-07-30T09:54:10;1.60;;;1.50;;
7933;SDS011;4012;48.896;9.192;2023-07-30T09:56:37;1.93;;;1.63;;
7933;SDS011;4012;48.896;9.192;2023-07-30T09:59:04;4.07;;;1.87;;
7933;SDS011;4012;48.896;9.192;2023-07-30T10:01:31;2.03;;;1.60;;
7933;SDS011;4012;48.896;9.192;2023-07-30T10:04:00;3.63;;;1.70;;
7933;SDS011;4012;48.896;9.192;2023-07-30T10:06:32;1.93;;;1.73;;
7933;SDS011;4012;48.896;9.192;2023-07-30T10:09:00;1.83;;;1.67;;
7933;SDS011;4012;48.896;9.192;2023-07-30T10:11:27;3.33;;;1.80;;
7933;SDS011;4012;48.896;9.192;2023-07-30T10:13:53;2.20;;;2.00;;
7933;SDS011;4012;48.896;9.192;2023-07-30T10:16:25;3.20;;;1.53;;
7933;SDS011;4012;48.896;9.192;2023-07-30T10:18:52;3.87;;;1.90;;
7933;SDS011;4012;48.896;9.192;2023-07-30T10:21:24;1.77;;;1.63;;
7933;SDS011;4012;48.896;9.192;2023-07-30T10:24:12;1.67;;;1.57;;
7933;SDS011;4012;48.896;9.192;2023-07-30T10:26:37;4.03;;;1.87;;
7933;SDS011;4012;48.896;9.192;2023-07-30T10:31:42;2.47;;;1.40;;
7933;SDS011;4012;48.896;9.192;2023-07-30T10:34:23;3.13;;;2.03;;
7933;SDS011;4012;48.896;9.192;2023-07-30T10:36:52;2.13;;;1.60;;
7933;SDS011;4012;48.896;9.192;2023-07-30T10:39:26;3.20;;;1.80;;
7933;SDS011;4012;48.896;9.192;2023-07-30T10:41:55;2.03;;;1.70;;
7933;SDS011;4012;48.896;9.192;2023-07-30T10:44:28;2.77;;;1.70;;
7933;SDS011;4012;48.896;9.192;2023-07-30T10:46:57;2.50;;;1.70;;
7933;SDS011;4012;48.896;9.192;2023-07-30T10:49:24;2.20;;;2.00;;
7933;SDS011;4012;48.896;9.192;2023-07-30T10:51:53;2.10;;;1.80;;
7933;SDS011;4012;48.896;9.192;2023-07-30T10:54:21;4.50;;;1.60;;
7933;SDS011;4012;48.896;9.192;2023-07-30T10:56:47;2.70;;;1.80;;
7933;SDS011;4012;48.896;9.192;2023-07-30T10:59:13;2.70;;;2.50;;
7933;SDS011;4012;48.896;9.192;2023-07-30T11:01:40;3.13;;;1.80;;
7933;SDS011;4012;48.896;9.192;2023-07-30T11:04:10;1.87;;;1.60;;
7933;SDS011;4012;48.896;9.192;2023-07-30T11:06:45;2.87;;;2.00;;
7933;SDS011;4012;48.896;9.192;2023-07-30T11:09:21;3.17;;;1.90;;
7933;SDS011;4012;48.896;9.192;2023-07-30T11:11:51;2.80;;;2.10;;
7933;SDS011;4012;48.896;9.192;2023-07-30T11:14:19;2.83;;;1.90;;
7933;SDS011;4012;48.896;9.192;2023-07-30T11:16:52;3.47;;;1.97;;
7933;SDS011;4012;48.896;9.192;2023-07-30T11:19:19;3.27;;;2.00;;
7933;SDS011;4012;48.896;9.192;2023-07-30T11:21:46;3.27;;;2.20;;
7933;SDS011;4012;48.896;9.192;2023-07-30T11:24:12;3.83;;;1.87;;
7933;SDS011;4012;48.896;9.192;2023-07-30T11:26:38;2.43;;;1.77;;
7933;SDS011;4012;48.896;9.192;2023-07-30T11:29:16;3.43;;;1.90;;
7933;SDS011;4012;48.896;9.192;2023-07-30T11:31:46;1.90;;;1.70;;
7933;SDS011;4012;48.896;9.192;2023-07-30T11:34:13;2.93;;;1.67;;
7933;SDS011;4012;48.896;9.192;2023-07-30T11:36:40;1.70;;;1.60;;
7933;SDS011;4012;48.896;9.192;2023-07-30T11:39:07;3.03;;;1.67;;
7933;SDS011;4012;48.896;9.192;2023-07-30T11:41:33;3.33;;;1.67;;
7933;SDS011;4012;48.896;9.192;2023-07-30T11:43:59;2.30;;;1.80;;
7933;SDS011;4012;48.896;9.192;2023-07-30T11:46:25;3.47;;;2.60;;
7933;SDS011;4012;48.896;9.192;2023-07-30T11:48:52;2.37;;;1.57;;
7933;SDS011;4012;48.896;9.192;2023-07-30T11:53:56;3.57;;;1.70;;
7933;SDS011;4012;48.896;9.192;2023-07-30T11:56:26;2.47;;;1.53;;
7933;SDS011;4012;48.896;9.192;2023-07-30T11:58:54;2.10;;;1.70;;
7933;SDS011;4012;48.896;9.192;2023-07-30T12:01:24;4.97;;;1.93;;
7933;SDS011;4012;48.896;9.192;2023-07-30T12:03:55;3.07;;;2.33;;
7933;SDS011;4012;48.896;9.192;2023-07-30T12:06:21;5.97;;;2.10;;
7933;SDS011;4012;48.896;9.192;2023-07-30T12:08:50;2.80;;;1.60;;
7933;SDS011;4012;48.896;9.192;2023-07-30T12:11:17;2.40;;;1.60;;
7933;SDS011;4012;48.896;9.192;2023-07-30T12:13:45;5.90;;;1.70;;
7933;SDS011;4012;48.896;9.192;2023-07-30T12:16:11;3.90;;;1.70;;
7933;SDS011;4012;48.896;9.192;2023-07-30T12:18:38;3.40;;;1.57;;
7933;SDS011;4012;48.896;9.192;2023-07-30T12:21:05;4.97;;;1.90;;
7933;SDS011;4012;48.896;9.192;2023-07-30T12:23:32;2.20;;;1.60;;
7933;SDS011;4012;48.896;9.192;2023-07-30T12:26:02;3.17;;;1.87;;
7933;SDS011;4012;48.896;9.192;2023-07-30T12:28:31;3.90;;;1.90;;
7933;SDS011;4012;48.896;9.192;2023-07-30T12:30:58;2.03;;;1.47;;
7933;SDS011;4012;48.896;9.192;2023-07-30T12:33:24;2.27;;;1.50;;
7933;SDS011;4012;48.896;9.192;2023-07-30T12:35:50;4.00;;;1.93;;
7933;SDS011;4012;48.896;9.192;2023-07-30T12:38:15;2.50;;;1.50;;
7933;SDS011;4012;48.896;9.192;2023-07-30T12:40:41;1.67;;;1.30;;
7933;SDS011;4012;48.896;9.192;2023-07-30T12:43:07;2.07;;;1.67;;
7933;SDS011;4012;48.896;9.192;2023-07-30T12:45:34;2.40;;;1.67;;
7933;SDS011;4012;48.896;9.192;2023-07-30T12:48:00;4.33;;;1.70;;
7933;SDS011;4012;48.896;9.192;2023-07-30T12:50:26;2.03;;;1.60;;
7933;SDS011;4012;48.896;9.192;2023-07-30T12:52:51;1.80;;;1.60;;
7933;SDS011;4012;48.896;9.192;2023-07-30T12:55:17;3.13;;;1.40;;
7933;SDS011;4012;48.896;9.192;2023-07-30T12:57:42;3.00;;;1.80;;
7933;SDS011;4012;48.896;9.192;2023-07-30T13:00:08;4.17;;;1.90;;
7933;SDS011;4012;48.896;9.192;2023-07-30T13:02:34;2.97;;;1.60;;
7933;SDS011;4012;48.896;9.192;2023-07-30T13:05:01;2.67;;;1.43;;
7933;SDS011;4012;48.896;9.192;2023-07-30T13:07:28;2.73;;;1.60;;
7933;SDS011;4012;48.896;9.192;2023-07-30T13:10:05;2.97;;;1.37;;
7933;SDS011;4012;48.896;9.192;2023-07-30T13:12:32;1.90;;;1.40;;
7933;SDS011;4012;48.896;9.192;2023-07-30T13:14:58;2.90;;;1.60;;
7933;SDS011;4012;48.896;9.192;2023-07-30T13:17:24;3.50;;;1.93;;
7933;SDS011;4012;48.896;9.192;2023-07-30T13:19:50;5.50;;;2.00;;
7933;SDS011;4012;48.896;9.192;2023-07-30T13:22:15;2.07;;;1.50;;
7933;SDS011;4012;48.896;9.192;2023-07-30T13:24:41;2.10;;;1.67;;
7933;SDS011;4012;48.896;9.192;2023-07-30T13:27:06;2.80;;;1.70;;
7933;SDS011;4012;48.896;9.192;2023-07-30T13:29:32;4.23;;;1.97;;
7933;SDS011;4012;48.896;9.192;2023-07-30T13:31:57;2.47;;;1.80;;
7933;SDS011;4012;48.896;9.192;2023-07-30T13:34:23;3.73;;;1.60;;
7933;SDS011;4012;48.896;9.192;2023-07-30T13:36:49;2.57;;;1.60;;
7933;SDS011;4012;48.896;9.192;2023-07-30T13:39:15;3.07;;;1.70;;
7933;SDS011;4012;48.896;9.192;2023-07-30T13:41:40;2.43;;;1.70;;
7933;SDS011;4012;48.896;9.192;2023-07-30T13:44:06;2.43;;;1.83;;
7933;SDS011;4012;48.896;9.192;2023-07-30T13:46:32;2.80;;;1.67;;
7933;SDS011;4012;48.896;9.192;2023-07-30T13:48:57;3.53;;;1.40;;
7933;SDS011;4012;48.896;9.192;2023-07-30T13:51:23;6.50;;;1.73;;
7933;SDS011;4012;48.896;9.192;2023-07-30T13:53:48;16.30;;;2.37;;
7933;SDS011;4012;48.896;9.192;2023-07-30T13:56:14;4.17;;;1.97;;
7933;SDS011;4012;48.896;9.192;2023-07-30T13:58:39;3.90;;;2.13;;
7933;SDS011;4012;48.896;9.192;2023-07-30T14:01:06;2.47;;;1.47;;
7933;SDS011;4012;48.896;9.192;2023-07-30T14:03:33;4.07;;;2.43;;
7933;SDS011;4012;48.896;9.192;2023-07-30T14:05:59;2.73;;;1.60;;
7933;SDS011;4012;48.896;9.192;2023-07-30T14:08:24;3.90;;;2.00;;
7933;SDS011;4012;48.896;9.192;2023-07-30T14:10:50;2.43;;;1.50;;
7933;SDS011;4012;48.896;9.192;2023-07-30T14:13:16;1.97;;;1.63;;
7933;SDS011;4012;48.896;9.192;2023-07-30T14:15:41;2.37;;;1.60;;
7933;SDS011;4012;48.896;9.192;2023-07-30T14:18:07;4.13;;;1.90;;
7933;SDS011;4012;48.896;9.192;2023-07-30T14:20:32;3.97;;;1.70;;
7933;SDS011;4012;48.896;9.192;2023-07-30T14:22:58;3.10;;;1.90;;
7933;SDS011;4012;48.896;9.192;2023-07-30T14:25:26;5.77;;;2.40;;
7933;SDS011;4012;48.896;9.192;2023-07-30T14:27:52;4.47;;;2.47;;
7933;SDS011;4012;48.896;9.192;2023-07-30T14:30:17;2.87;;;1.70;;
7933;SDS011;4012;48.896;9.192;2023-07-30T14:32:43;3.00;;;1.73;;
7933;SDS011;4012;48.896;9.192;2023-07-30T14:35:09;3.77;;;1.80;;
7933;SDS011;4012;48.896;9.192;2023-07-30T14:37:34;2.67;;;2.00;;
7933;SDS011;4012;48.896;9.192;2023-07-30T14:40:00;3.53;;;2.07;;
7933;SDS011;4012;48.896;9.192;2023-07-30T14:42:25;2.83;;;1.80;;
7933;SDS011;4012;48.896;9.192;2023-07-30T14:44:51;4.10;;;1.83;;
7933;SDS011;4012;48.896;9.192;2023-07-30T14:47:16;3.40;;;1.70;;
7933;SDS011;4012;48.896;9.192;2023-07-30T14:49:42;3.30;;;1.70;;
7933;SDS011;4012;48.896;9.192;2023-07-30T14:52:08;3.00;;;1.53;;
7933;SDS011;4012;48.896;9.192;2023-07-30T14:54:33;5.13;;;2.03;;
7933;SDS011;4012;48.896;9.192;2023-07-30T14:56:59;3.07;;;1.60;;
7933;SDS011;4012;48.896;9.192;2023-07-30T14:59:25;3.27;;;1.50;;
7933;SDS011;4012;48.896;9.192;2023-07-30T15:01:51;2.83;;;1.60;;
7933;SDS011;4012;48.896;9.192;2023-07-30T15:04:16;3.10;;;1.50;;
7933;SDS011;4012;48.896;9.192;2023-07-30T15:06:42;4.07;;;2.00;;
7933;SDS011;4012;48.896;9.192;2023-07-30T15:09:07;3.33;;;1.70;;
7933;SDS011;4012;48.896;9.192;2023-07-30T15:11:33;2.07;;;1.33;;
7933;SDS011;4012;48.896;9.192;2023-07-30T15:13:58;3.13;;;1.70;;
7933;SDS011;4012;48.896;9.192;2023-07-30T15:16:24;3.27;;;1.53;;